Aviation Digital Data Service (ADDS)

Output produced by METARs form (1553 UTC 28 February 2015)
found at http://aviationweather.gov/adds/metars/
 
KPHF 281120Z 2812/0112 02007KT P6SM BKN120 BKN250 
     FM281800 04009KT P6SM FEW040 BKN080